sensor_id;sensor_type;location;lat;lon;timestamp;P1;durP1;ratioP1;P2;durP2;ratioP2
72105;SDS011;59975;47.646;18.318;2023-04-01T00:00:15;2.70;;;1.35;;
72105;SDS011;59975;47.646;18.318;2023-04-01T00:02:41;5.60;;;1.60;;
72105;SDS011;59975;47.646;18.318;2023-04-01T00:05:06;3.85;;;1.10;;
72105;SDS011;59975;47.646;18.318;2023-04-01T00:07:32;2.53;;;1.42;;
72105;SDS011;59975;47.646;18.318;2023-04-01T00:09:58;1.87;;;1.00;;
72105;SDS011;59975;47.646;18.318;2023-04-01T00:12:23;3.27;;;1.60;;
72105;SDS011;59975;47.646;18.318;2023-04-01T00:14:50;2.30;;;0.95;;
72105;SDS011;59975;47.646;18.318;2023-04-01T00:17:16;3.83;;;1.38;;
72105;SDS011;59975;47.646;18.318;2023-04-01T00:19:41;2.63;;;1.30;;
72105;SDS011;59975;47.646;18.318;2023-04-01T00:22:07;2.75;;;1.23;;
72105;SDS011;59975;47.646;18.318;2023-04-01T00:24:36;3.50;;;1.20;;
72105;SDS011;59975;47.646;18.318;2023-04-01T00:27:02;2.13;;;1.60;;
72105;SDS011;59975;47.646;18.318;2023-04-01T00:29:28;2.05;;;0.95;;
72105;SDS011;59975;47.646;18.318;2023-04-01T00:31:56;3.22;;;1.23;;
72105;SDS011;59975;47.646;18.318;2023-04-01T00:34:22;5.20;;;1.25;;
72105;SDS011;59975;47.646;18.318;2023-04-01T00:36:48;3.67;;;1.08;;
72105;SDS011;59975;47.646;18.318;2023-04-01T00:39:15;2.47;;;1.02;;
72105;SDS011;59975;47.646;18.318;2023-04-01T00:41:41;3.70;;;1.20;;
72105;SDS011;59975;47.646;18.318;2023-04-01T00:46:46;1.85;;;0.93;;
72105;SDS011;59975;47.646;18.318;2023-04-01T00:49:12;2.13;;;0.93;;
72105;SDS011;59975;47.646;18.318;2023-04-01T00:51:39;2.10;;;1.00;;
72105;SDS011;59975;47.646;18.318;2023-04-01T00:54:06;3.08;;;1.40;;
72105;SDS011;59975;47.646;18.318;2023-04-01T00:56:38;2.63;;;1.25;;
72105;SDS011;59975;47.646;18.318;2023-04-01T00:59:11;3.10;;;0.85;;
72105;SDS011;59975;47.646;18.318;2023-04-01T01:01:40;3.70;;;1.25;;
72105;SDS011;59975;47.646;18.318;2023-04-01T01:04:05;2.10;;;1.20;;
72105;SDS011;59975;47.646;18.318;2023-04-01T01:06:40;2.20;;;1.30;;
72105;SDS011;59975;47.646;18.318;2023-04-01T01:28:42;2.10;;;1.05;;
72105;SDS011;59975;47.646;18.318;2023-04-01T01:37:10;1.63;;;1.02;;
72105;SDS011;59975;47.646;18.318;2023-04-01T01:39:40;2.75;;;1.00;;
72105;SDS011;59975;47.646;18.318;2023-04-01T01:42:09;1.73;;;1.00;;
72105;SDS011;59975;47.646;18.318;2023-04-01T01:44:38;2.10;;;1.10;;
72105;SDS011;59975;47.646;18.318;2023-04-01T01:47:07;2.55;;;1.20;;
72105;SDS011;59975;47.646;18.318;2023-04-01T01:49:33;2.25;;;1.00;;
72105;SDS011;59975;47.646;18.318;2023-04-01T01:52:01;1.80;;;1.00;;
72105;SDS011;59975;47.646;18.318;2023-04-01T01:54:27;2.50;;;1.00;;
72105;SDS011;59975;47.646;18.318;2023-04-01T01:56:55;4.47;;;1.20;;
72105;SDS011;59975;47.646;18.318;2023-04-01T01:59:35;2.47;;;1.10;;
72105;SDS011;59975;47.646;18.318;2023-04-01T02:02:03;2.08;;;1.20;;
72105;SDS011;59975;47.646;18.318;2023-04-01T02:04:37;2.33;;;1.07;;
72105;SDS011;59975;47.646;18.318;2023-04-01T02:07:09;1.50;;;0.85;;
72105;SDS011;59975;47.646;18.318;2023-04-01T02:09:38;3.47;;;1.08;;
72105;SDS011;59975;47.646;18.318;2023-04-01T02:12:08;2.13;;;0.80;;
72105;SDS011;59975;47.646;18.318;2023-04-01T02:17:25;3.93;;;0.90;;
72105;SDS011;59975;47.646;18.318;2023-04-01T02:19:56;3.80;;;1.17;;
72105;SDS011;59975;47.646;18.318;2023-04-01T02:22:31;2.83;;;1.30;;
72105;SDS011;59975;47.646;18.318;2023-04-01T02:25:04;2.35;;;0.75;;
72105;SDS011;59975;47.646;18.318;2023-04-01T02:27:32;2.42;;;1.35;;
72105;SDS011;59975;47.646;18.318;2023-04-01T02:29:58;2.93;;;1.13;;
72105;SDS011;59975;47.646;18.318;2023-04-01T02:32:24;2.15;;;1.10;;
72105;SDS011;59975;47.646;18.318;2023-04-01T02:34:52;2.10;;;1.50;;
72105;SDS011;59975;47.646;18.318;2023-04-01T02:37:18;2.50;;;1.42;;
72105;SDS011;59975;47.646;18.318;2023-04-01T02:39:44;2.70;;;1.23;;
72105;SDS011;59975;47.646;18.318;2023-04-01T02:42:10;1.80;;;1.03;;
72105;SDS011;59975;47.646;18.318;2023-04-01T02:44:36;2.15;;;1.13;;
72105;SDS011;59975;47.646;18.318;2023-04-01T02:47:01;1.97;;;1.23;;
72105;SDS011;59975;47.646;18.318;2023-04-01T02:49:27;3.45;;;1.35;;
72105;SDS011;59975;47.646;18.318;2023-04-01T02:51:53;2.13;;;1.30;;
72105;SDS011;59975;47.646;18.318;2023-04-01T02:54:18;2.65;;;1.58;;
72105;SDS011;59975;47.646;18.318;2023-04-01T02:56:44;2.65;;;1.50;;
72105;SDS011;59975;47.646;18.318;2023-04-01T02:59:10;2.77;;;1.50;;
72105;SDS011;59975;47.646;18.318;2023-04-01T03:01:36;2.53;;;1.38;;
72105;SDS011;59975;47.646;18.318;2023-04-01T03:04:01;3.80;;;1.80;;
72105;SDS011;59975;47.646;18.318;2023-04-01T03:06:27;3.35;;;1.83;;
72105;SDS011;59975;47.646;18.318;2023-04-01T03:08:52;4.23;;;2.20;;
72105;SDS011;59975;47.646;18.318;2023-04-01T03:11:18;5.87;;;1.90;;
72105;SDS011;59975;47.646;18.318;2023-04-01T03:13:43;8.20;;;2.77;;
72105;SDS011;59975;47.646;18.318;2023-04-01T03:16:09;4.65;;;2.47;;
72105;SDS011;59975;47.646;18.318;2023-04-01T03:18:35;5.67;;;2.73;;
72105;SDS011;59975;47.646;18.318;2023-04-01T03:21:17;3.17;;;2.00;;
72105;SDS011;59975;47.646;18.318;2023-04-01T03:23:44;4.15;;;1.77;;
72105;SDS011;59975;47.646;18.318;2023-04-01T03:26:10;4.57;;;1.90;;
72105;SDS011;59975;47.646;18.318;2023-04-01T03:28:35;3.53;;;1.83;;
72105;SDS011;59975;47.646;18.318;2023-04-01T03:31:01;3.80;;;2.15;;
72105;SDS011;59975;47.646;18.318;2023-04-01T03:33:27;4.97;;;2.63;;
72105;SDS011;59975;47.646;18.318;2023-04-01T03:35:52;3.07;;;1.90;;
72105;SDS011;59975;47.646;18.318;2023-04-01T03:38:18;3.83;;;2.33;;
72105;SDS011;59975;47.646;18.318;2023-04-01T03:40:44;4.45;;;2.35;;
72105;SDS011;59975;47.646;18.318;2023-04-01T03:43:10;4.75;;;2.40;;
72105;SDS011;59975;47.646;18.318;2023-04-01T03:45:42;5.43;;;2.57;;
72105;SDS011;59975;47.646;18.318;2023-04-01T03:48:09;4.68;;;1.98;;
72105;SDS011;59975;47.646;18.318;2023-04-01T03:50:34;4.68;;;1.92;;
72105;SDS011;59975;47.646;18.318;2023-04-01T03:53:00;2.28;;;1.52;;
72105;SDS011;59975;47.646;18.318;2023-04-01T03:55:26;6.47;;;1.80;;
72105;SDS011;59975;47.646;18.318;2023-04-01T03:57:51;3.65;;;1.90;;
72105;SDS011;59975;47.646;18.318;2023-04-01T04:00:17;4.07;;;2.17;;
72105;SDS011;59975;47.646;18.318;2023-04-01T04:02:42;4.27;;;1.83;;
72105;SDS011;59975;47.646;18.318;2023-04-01T04:05:09;3.45;;;1.55;;
72105;SDS011;59975;47.646;18.318;2023-04-01T04:07:43;2.35;;;1.65;;
72105;SDS011;59975;47.646;18.318;2023-04-01T04:10:09;3.70;;;1.53;;
72105;SDS011;59975;47.646;18.318;2023-04-01T04:12:35;5.05;;;1.85;;
72105;SDS011;59975;47.646;18.318;2023-04-01T04:15:00;3.50;;;1.80;;
72105;SDS011;59975;47.646;18.318;2023-04-01T04:17:26;4.63;;;1.90;;
72105;SDS011;59975;47.646;18.318;2023-04-01T04:19:51;5.73;;;2.17;;
72105;SDS011;59975;47.646;18.318;2023-04-01T04:22:17;3.13;;;1.67;;
72105;SDS011;59975;47.646;18.318;2023-04-01T04:24:42;5.50;;;2.22;;
72105;SDS011;59975;47.646;18.318;2023-04-01T04:27:08;4.73;;;2.43;;
72105;SDS011;59975;47.646;18.318;2023-04-01T04:29:33;4.17;;;2.13;;
72105;SDS011;59975;47.646;18.318;2023-04-01T04:31:59;3.87;;;1.97;;
72105;SDS011;59975;47.646;18.318;2023-04-01T04:34:25;3.88;;;1.85;;
72105;SDS011;59975;47.646;18.318;2023-04-01T04:36:50;3.80;;;2.10;;
72105;SDS011;59975;47.646;18.318;2023-04-01T04:39:16;4.40;;;2.08;;
72105;SDS011;59975;47.646;18.318;2023-04-01T04:41:41;2.73;;;1.63;;
72105;SDS011;59975;47.646;18.318;2023-04-01T04:44:07;4.50;;;2.13;;
72105;SDS011;59975;47.646;18.318;2023-04-01T04:46:33;2.97;;;1.70;;
72105;SDS011;59975;47.646;18.318;2023-04-01T04:48:58;5.93;;;2.43;;
72105;SDS011;59975;47.646;18.318;2023-04-01T04:51:24;2.47;;;1.63;;
72105;SDS011;59975;47.646;18.318;2023-04-01T04:53:50;4.35;;;2.35;;
72105;SDS011;59975;47.646;18.318;2023-04-01T04:56:19;3.38;;;2.08;;
72105;SDS011;59975;47.646;18.318;2023-04-01T04:58:46;4.88;;;2.53;;
72105;SDS011;59975;47.646;18.318;2023-04-01T05:01:12;6.87;;;3.67;;
72105;SDS011;59975;47.646;18.318;2023-04-01T05:03:39;8.25;;;3.42;;
72105;SDS011;59975;47.646;18.318;2023-04-01T05:06:05;7.10;;;3.75;;
72105;SDS011;59975;47.646;18.318;2023-04-01T05:08:32;6.10;;;3.00;;
72105;SDS011;59975;47.646;18.318;2023-04-01T05:10:59;6.90;;;3.00;;
72105;SDS011;59975;47.646;18.318;2023-04-01T05:13:26;7.25;;;3.38;;
72105;SDS011;59975;47.646;18.318;2023-04-01T05:15:51;7.97;;;2.93;;
72105;SDS011;59975;47.646;18.318;2023-04-01T05:18:17;7.20;;;3.03;;
72105;SDS011;59975;47.646;18.318;2023-04-01T05:20:49;7.87;;;2.90;;
72105;SDS011;59975;47.646;18.318;2023-04-01T05:23:17;6.88;;;2.70;;
72105;SDS011;59975;47.646;18.318;2023-04-01T05:25:43;5.87;;;2.80;;
72105;SDS011;59975;47.646;18.318;2023-04-01T05:28:10;4.22;;;2.15;;
72105;SDS011;59975;47.646;18.318;2023-04-01T05:30:36;6.40;;;2.22;;
72105;SDS011;59975;47.646;18.318;2023-04-01T05:33:01;3.87;;;2.17;;
72105;SDS011;59975;47.646;18.318;2023-04-01T05:35:27;4.85;;;2.33;;
72105;SDS011;59975;47.646;18.318;2023-04-01T05:37:53;3.97;;;2.50;;
72105;SDS011;59975;47.646;18.318;2023-04-01T05:40:18;5.20;;;2.63;;
72105;SDS011;59975;47.646;18.318;2023-04-01T05:42:44;7.60;;;2.60;;
72105;SDS011;59975;47.646;18.318;2023-04-01T05:45:10;4.38;;;2.30;;
72105;SDS011;59975;47.646;18.318;2023-04-01T05:47:35;8.17;;;2.60;;
72105;SDS011;59975;47.646;18.318;2023-04-01T05:50:01;5.57;;;2.63;;
72105;SDS011;59975;47.646;18.318;2023-04-01T05:52:26;7.17;;;3.53;;
72105;SDS011;59975;47.646;18.318;2023-04-01T05:54:52;8.90;;;3.80;;
72105;SDS011;59975;47.646;18.318;2023-04-01T05:57:17;8.53;;;3.60;;
72105;SDS011;59975;47.646;18.318;2023-04-01T05:59:43;6.27;;;3.77;;
72105;SDS011;59975;47.646;18.318;2023-04-01T06:02:09;5.05;;;2.72;;
72105;SDS011;59975;47.646;18.318;2023-04-01T06:04:37;6.07;;;3.03;;
72105;SDS011;59975;47.646;18.318;2023-04-01T06:07:14;4.07;;;2.10;;
72105;SDS011;59975;47.646;18.318;2023-04-01T06:09:41;5.30;;;1.80;;
72105;SDS011;59975;47.646;18.318;2023-04-01T06:14:46;5.83;;;2.43;;
72105;SDS011;59975;47.646;18.318;2023-04-01T06:41:16;6.20;;;1.80;;
72105;SDS011;59975;47.646;18.318;2023-04-01T06:44:16;5.43;;;2.10;;
72105;SDS011;59975;47.646;18.318;2023-04-01T06:52:35;4.30;;;1.75;;
72105;SDS011;59975;47.646;18.318;2023-04-01T06:58:06;5.73;;;3.03;;
72105;SDS011;59975;47.646;18.318;2023-04-01T07:00:42;6.97;;;2.30;;
72105;SDS011;59975;47.646;18.318;2023-04-01T07:03:16;4.60;;;2.00;;
72105;SDS011;59975;47.646;18.318;2023-04-01T07:05:43;4.35;;;1.40;;
72105;SDS011;59975;47.646;18.318;2023-04-01T07:08:10;4.10;;;2.00;;
72105;SDS011;59975;47.646;18.318;2023-04-01T07:13:41;4.10;;;1.92;;
72105;SDS011;59975;47.646;18.318;2023-04-01T07:18:46;6.80;;;3.30;;
72105;SDS011;59975;47.646;18.318;2023-04-01T07:21:39;3.57;;;1.60;;
72105;SDS011;59975;47.646;18.318;2023-04-01T07:24:20;6.25;;;1.58;;
72105;SDS011;59975;47.646;18.318;2023-04-01T07:26:52;4.97;;;1.60;;
72105;SDS011;59975;47.646;18.318;2023-04-01T07:29:20;3.83;;;0.88;;
72105;SDS011;59975;47.646;18.318;2023-04-01T07:31:50;3.73;;;1.23;;
72105;SDS011;59975;47.646;18.318;2023-04-01T07:34:25;5.47;;;2.00;;
72105;SDS011;59975;47.646;18.318;2023-04-01T07:37:10;2.60;;;1.40;;
72105;SDS011;59975;47.646;18.318;2023-04-01T07:45:54;2.92;;;1.90;;
72105;SDS011;59975;47.646;18.318;2023-04-01T07:59:28;2.28;;;1.13;;
72105;SDS011;59975;47.646;18.318;2023-04-01T08:21:32;2.88;;;1.48;;
72105;SDS011;59975;47.646;18.318;2023-04-01T08:26:49;2.28;;;1.08;;
72105;SDS011;59975;47.646;18.318;2023-04-01T08:29:20;2.45;;;0.90;;
72105;SDS011;59975;47.646;18.318;2023-04-01T08:31:50;4.15;;;1.30;;
72105;SDS011;59975;47.646;18.318;2023-04-01T08:34:30;3.67;;;1.40;;
72105;SDS011;59975;47.646;18.318;2023-04-01T08:37:00;3.37;;;0.90;;
72105;SDS011;59975;47.646;18.318;2023-04-01T08:39:30;4.13;;;1.50;;
72105;SDS011;59975;47.646;18.318;2023-04-01T08:56:18;5.95;;;1.50;;
72105;SDS011;59975;47.646;18.318;2023-04-01T09:02:11;5.88;;;1.45;;
72105;SDS011;59975;47.646;18.318;2023-04-01T09:15:37;1.80;;;1.20;;
72105;SDS011;59975;47.646;18.318;2023-04-01T09:18:19;4.60;;;1.23;;
72105;SDS011;59975;47.646;18.318;2023-04-01T09:21:01;3.05;;;0.98;;
72105;SDS011;59975;47.646;18.318;2023-04-01T09:23:54;6.00;;;2.45;;
72105;SDS011;59975;47.646;18.318;2023-04-01T09:29:30;7.65;;;1.67;;
72105;SDS011;59975;47.646;18.318;2023-04-01T09:32:30;3.53;;;1.90;;
72105;SDS011;59975;47.646;18.318;2023-04-01T09:40:24;4.22;;;1.42;;
72105;SDS011;59975;47.646;18.318;2023-04-01T10:11:10;1.85;;;1.00;;
72105;SDS011;59975;47.646;18.318;2023-04-01T10:16:46;1.80;;;1.00;;
72105;SDS011;59975;47.646;18.318;2023-04-01T10:22:21;1.45;;;1.10;;
72105;SDS011;59975;47.646;18.318;2023-04-01T11:24:16;1.37;;;0.70;;
72105;SDS011;59975;47.646;18.318;2023-04-01T11:33:05;1.77;;;0.80;;
72105;SDS011;59975;47.646;18.318;2023-04-01T11:35:55;2.63;;;1.20;;
72105;SDS011;59975;47.646;18.318;2023-04-01T11:44:20;2.28;;;0.77;;
72105;SDS011;59975;47.646;18.318;2023-04-01T12:16:43;2.65;;;1.10;;
72105;SDS011;59975;47.646;18.318;2023-04-01T12:24:36;4.57;;;1.10;;
72105;SDS011;59975;47.646;18.318;2023-04-01T12:27:36;1.73;;;0.70;;
72105;SDS011;59975;47.646;18.318;2023-04-01T12:36:05;2.15;;;0.85;;
72105;SDS011;59975;47.646;18.318;2023-04-01T12:44:52;4.35;;;1.20;;
72105;SDS011;59975;47.646;18.318;2023-04-01T12:55:45;1.40;;;0.68;;
72105;SDS011;59975;47.646;18.318;2023-04-01T13:07:19;3.17;;;0.90;;
72105;SDS011;59975;47.646;18.318;2023-04-01T13:25:47;2.92;;;1.10;;
72105;SDS011;59975;47.646;18.318;2023-04-01T13:29:45;1.70;;;0.98;;
72105;SDS011;59975;47.646;18.318;2023-04-01T13:42:24;2.53;;;1.30;;
72105;SDS011;59975;47.646;18.318;2023-04-01T13:50:07;2.38;;;0.93;;
72105;SDS011;59975;47.646;18.318;2023-04-01T14:09:06;1.75;;;0.95;;
72105;SDS011;59975;47.646;18.318;2023-04-01T14:11:53;1.65;;;0.90;;
72105;SDS011;59975;47.646;18.318;2023-04-01T14:14:36;1.50;;;0.87;;
72105;SDS011;59975;47.646;18.318;2023-04-01T14:23:06;0.57;;;0.50;;
72105;SDS011;59975;47.646;18.318;2023-04-01T14:25:39;0.63;;;0.50;;
72105;SDS011;59975;47.646;18.318;2023-04-01T14:40:06;0.82;;;0.57;;
72105;SDS011;59975;47.646;18.318;2023-04-01T14:45:27;1.77;;;0.70;;
72105;SDS011;59975;47.646;18.318;2023-04-01T14:48:28;1.13;;;0.75;;
72105;SDS011;59975;47.646;18.318;2023-04-01T14:54:13;1.77;;;0.77;;
72105;SDS011;59975;47.646;18.318;2023-04-01T14:59:35;1.52;;;0.55;;
72105;SDS011;59975;47.646;18.318;2023-04-01T15:04:56;1.17;;;0.80;;
72105;SDS011;59975;47.646;18.318;2023-04-01T15:18:33;1.40;;;0.60;;
72105;SDS011;59975;47.646;18.318;2023-04-01T15:21:36;2.03;;;0.93;;
72105;SDS011;59975;47.646;18.318;2023-04-01T15:24:24;1.17;;;0.90;;
72105;SDS011;59975;47.646;18.318;2023-04-01T15:29:38;2.83;;;0.65;;
72105;SDS011;59975;47.646;18.318;2023-04-01T15:37:45;1.53;;;0.60;;
72105;SDS011;59975;47.646;18.318;2023-04-01T15:40:24;0.85;;;0.50;;
72105;SDS011;59975;47.646;18.318;2023-04-01T16:04:34;1.77;;;0.70;;
72105;SDS011;59975;47.646;18.318;2023-04-01T16:13:22;2.30;;;0.50;;
72105;SDS011;59975;47.646;18.318;2023-04-01T16:18:39;0.95;;;0.50;;
72105;SDS011;59975;47.646;18.318;2023-04-01T16:21:14;0.88;;;0.63;;
72105;SDS011;59975;47.646;18.318;2023-04-01T16:23:56;4.20;;;0.77;;
72105;SDS011;59975;47.646;18.318;2023-04-01T16:31:46;0.80;;;0.70;;
72105;SDS011;59975;47.646;18.318;2023-04-01T16:34:22;0.85;;;0.65;;
72105;SDS011;59975;47.646;18.318;2023-04-01T16:37:19;0.50;;;0.40;;
72105;SDS011;59975;47.646;18.318;2023-04-01T16:39:59;1.23;;;0.65;;
72105;SDS011;59975;47.646;18.318;2023-04-01T16:48:15;1.73;;;0.80;;
72105;SDS011;59975;47.646;18.318;2023-04-01T16:50:51;0.93;;;0.60;;
72105;SDS011;59975;47.646;18.318;2023-04-01T16:56:13;0.93;;;0.60;;
72105;SDS011;59975;47.646;18.318;2023-04-01T16:59:02;2.05;;;0.88;;
72105;SDS011;59975;47.646;18.318;2023-04-01T17:04:07;2.87;;;0.80;;
72105;SDS011;59975;47.646;18.318;2023-04-01T17:07:05;2.72;;;1.00;;
72105;SDS011;59975;47.646;18.318;2023-04-01T17:09:51;3.75;;;1.63;;
72105;SDS011;59975;47.646;18.318;2023-04-01T17:20:26;2.42;;;1.20;;
72105;SDS011;59975;47.646;18.318;2023-04-01T17:23:12;3.00;;;1.20;;
72105;SDS011;59975;47.646;18.318;2023-04-01T17:26:05;5.00;;;3.15;;
72105;SDS011;59975;47.646;18.318;2023-04-01T17:40:06;2.60;;;1.50;;
72105;SDS011;59975;47.646;18.318;2023-04-01T17:45:19;4.23;;;2.03;;
72105;SDS011;59975;47.646;18.318;2023-04-01T17:53:35;5.30;;;2.40;;
72105;SDS011;59975;47.646;18.318;2023-04-01T17:59:10;4.13;;;2.57;;
72105;SDS011;59975;47.646;18.318;2023-04-01T18:04:56;4.18;;;2.53;;
72105;SDS011;59975;47.646;18.318;2023-04-01T18:24:00;11.60;;;4.18;;
72105;SDS011;59975;47.646;18.318;2023-04-01T18:26:35;14.77;;;5.83;;
72105;SDS011;59975;47.646;18.318;2023-04-01T18:29:12;10.98;;;4.75;;
72105;SDS011;59975;47.646;18.318;2023-04-01T18:31:51;6.75;;;3.20;;
72105;SDS011;59975;47.646;18.318;2023-04-01T18:34:39;11.05;;;3.22;;
72105;SDS011;59975;47.646;18.318;2023-04-01T18:37:25;10.30;;;3.55;;
72105;SDS011;59975;47.646;18.318;2023-04-01T18:39:52;6.97;;;3.43;;
72105;SDS011;59975;47.646;18.318;2023-04-01T18:53:39;15.33;;;5.80;;
72105;SDS011;59975;47.646;18.318;2023-04-01T18:56:03;11.57;;;4.95;;
72105;SDS011;59975;47.646;18.318;2023-04-01T18:58:52;12.30;;;5.15;;
72105;SDS011;59975;47.646;18.318;2023-04-01T19:05:05;12.65;;;5.10;;
72105;SDS011;59975;47.646;18.318;2023-04-01T19:10:12;9.90;;;4.43;;
72105;SDS011;59975;47.646;18.318;2023-04-01T19:26:37;31.83;;;13.80;;
72105;SDS011;59975;47.646;18.318;2023-04-01T19:29:27;28.38;;;12.20;;
72105;SDS011;59975;47.646;18.318;2023-04-01T19:45:54;26.95;;;13.77;;
72105;SDS011;59975;47.646;18.318;2023-04-01T19:48:34;30.38;;;13.90;;
72105;SDS011;59975;47.646;18.318;2023-04-01T19:51:09;26.98;;;12.05;;
72105;SDS011;59975;47.646;18.318;2023-04-01T19:54:04;24.80;;;11.20;;
72105;SDS011;59975;47.646;18.318;2023-04-01T19:59:16;15.50;;;7.88;;
72105;SDS011;59975;47.646;18.318;2023-04-01T20:04:54;13.52;;;6.85;;
72105;SDS011;59975;47.646;18.318;2023-04-01T20:07:31;12.33;;;5.20;;
72105;SDS011;59975;47.646;18.318;2023-04-01T20:15:59;9.18;;;4.82;;
72105;SDS011;59975;47.646;18.318;2023-04-01T20:18:46;10.80;;;4.57;;
72105;SDS011;59975;47.646;18.318;2023-04-01T20:21:19;8.97;;;3.70;;
72105;SDS011;59975;47.646;18.318;2023-04-01T20:23:59;5.55;;;2.42;;
72105;SDS011;59975;47.646;18.318;2023-04-01T20:26:32;5.47;;;2.50;;
72105;SDS011;59975;47.646;18.318;2023-04-01T20:46:00;3.08;;;1.65;;
72105;SDS011;59975;47.646;18.318;2023-04-01T20:51:37;2.85;;;1.40;;
72105;SDS011;59975;47.646;18.318;2023-04-01T20:57:13;2.40;;;1.10;;
72105;SDS011;59975;47.646;18.318;2023-04-01T20:59:58;2.10;;;1.10;;
72105;SDS011;59975;47.646;18.318;2023-04-01T21:08:36;2.83;;;1.17;;
72105;SDS011;59975;47.646;18.318;2023-04-01T21:11:15;3.35;;;1.27;;
72105;SDS011;59975;47.646;18.318;2023-04-01T21:16:57;2.50;;;1.00;;
72105;SDS011;59975;47.646;18.318;2023-04-01T21:24:59;3.10;;;1.40;;
72105;SDS011;59975;47.646;18.318;2023-04-01T21:27:58;2.53;;;1.25;;
72105;SDS011;59975;47.646;18.318;2023-04-01T21:35:55;3.03;;;1.50;;
72105;SDS011;59975;47.646;18.318;2023-04-01T21:49:51;4.10;;;1.15;;
72105;SDS011;59975;47.646;18.318;2023-04-01T22:04:51;4.00;;;1.20;;
72105;SDS011;59975;47.646;18.318;2023-04-01T22:09:42;1.80;;;1.02;;
72105;SDS011;59975;47.646;18.318;2023-04-01T22:12:30;1.00;;;0.80;;
72105;SDS011;59975;47.646;18.318;2023-04-01T22:17:42;2.58;;;1.10;;
72105;SDS011;59975;47.646;18.318;2023-04-01T22:20:33;6.75;;;1.85;;
72105;SDS011;59975;47.646;18.318;2023-04-01T22:23:25;3.30;;;1.40;;
72105;SDS011;59975;47.646;18.318;2023-04-01T22:28:52;2.15;;;1.40;;
72105;SDS011;59975;47.646;18.318;2023-04-01T22:31:43;2.83;;;1.90;;
72105;SDS011;59975;47.646;18.318;2023-04-01T22:34:16;2.75;;;1.30;;
72105;SDS011;59975;47.646;18.318;2023-04-01T22:42:07;5.60;;;1.60;;
72105;SDS011;59975;47.646;18.318;2023-04-01T22:47:22;2.25;;;1.50;;
72105;SDS011;59975;47.646;18.318;2023-04-01T22:50:15;2.10;;;1.13;;
72105;SDS011;59975;47.646;18.318;2023-04-01T22:52:46;2.20;;;1.20;;
72105;SDS011;59975;47.646;18.318;2023-04-01T22:55:15;2.25;;;1.20;;
72105;SDS011;59975;47.646;18.318;2023-04-01T23:00:48;2.53;;;1.30;;
72105;SDS011;59975;47.646;18.318;2023-04-01T23:06:01;2.03;;;1.20;;
72105;SDS011;59975;47.646;18.318;2023-04-01T23:11:20;2.00;;;1.33;;
72105;SDS011;59975;47.646;18.318;2023-04-01T23:13:52;2.50;;;1.40;;
72105;SDS011;59975;47.646;18.318;2023-04-01T23:16:31;2.08;;;1.50;;
72105;SDS011;59975;47.646;18.318;2023-04-01T23:19:04;2.17;;;1.13;;
72105;SDS011;59975;47.646;18.318;2023-04-01T23:25:11;2.90;;;1.45;;
72105;SDS011;59975;47.646;18.318;2023-04-01T23:28:05;2.80;;;1.13;;
72105;SDS011;59975;47.646;18.318;2023-04-01T23:30:54;1.98;;;0.90;;
72105;SDS011;59975;47.646;18.318;2023-04-01T23:36:00;1.25;;;0.80;;
72105;SDS011;59975;47.646;18.318;2023-04-01T23:38:39;0.88;;;0.80;;
72105;SDS011;59975;47.646;18.318;2023-04-01T23:41:07;1.13;;;0.70;;
72105;SDS011;59975;47.646;18.318;2023-04-01T23:43:43;1.48;;;0.82;;
72105;SDS011;59975;47.646;18.318;2023-04-01T23:46:09;1.40;;;1.00;;
72105;SDS011;59975;47.646;18.318;2023-04-01T23:51:08;0.98;;;0.75;;
72105;SDS011;59975;47.646;18.318;2023-04-01T23:53:41;1.97;;;0.80;;
72105;SDS011;59975;47.646;18.318;2023-04-01T23:56:09;2.47;;;0.80;;
72105;SDS011;59975;47.646;18.318;2023-04-01T23:58:45;1.45;;;0.95;;
